Time;durP1;ratioP1;P1;durP2;ratioP2;P2;SDS_P1;SDS_P2;PMS_P1;PMS_P2;Temp;Humidity;BMP_temperature;BMP_pressure;BME280_temperature;BME280_humidity;BME280_pressure;Samples;Min_cycle;Max_cycle;Signal;HPM_P1;HPM_P2
2021/10/27 00:00:50;;;;;;;12.65;10.43;;;14.40;99.90;;;;;;5050911;28;20477;-43
2021/10/27 00:03:16;;;;;;;11.15;9.32;;;14.40;99.90;;;;;;5056894;28;20032;-43
2021/10/27 00:05:41;;;;;;;9.98;8.30;;;14.40;99.90;;;;;;5047568;28;20417;-43
2021/10/27 00:08:06;;;;;;;12.43;9.50;;;14.40;99.90;;;;;;5058649;28;20033;-42
2021/10/27 00:10:33;;;;;;;16.92;11.98;;;14.40;99.90;;;;;;5048769;28;20377;-42
2021/10/27 00:12:58;;;;;;;14.43;11.10;;;14.40;99.90;;;;;;5056978;28;20025;-42
2021/10/27 00:15:25;;;;;;;12.45;10.25;;;14.50;99.90;;;;;;5047609;28;20041;-42
2021/10/27 00:17:54;;;;;;;11.93;10.50;;;14.50;99.90;;;;;;5059152;28;20079;-43
2021/10/27 00:20:20;;;;;;;13.27;10.63;;;14.50;99.90;;;;;;5046927;28;20028;-42
2021/10/27 00:22:45;;;;;;;15.10;11.15;;;14.50;99.90;;;;;;5058511;28;20040;-42
2021/10/27 00:25:11;;;;;;;13.20;11.25;;;14.50;99.90;;;;;;5046997;28;20025;-43
2021/10/27 00:27:37;;;;;;;12.07;9.63;;;14.50;99.90;;;;;;5058306;28;20425;-43
2021/10/27 00:30:04;;;;;;;13.85;11.05;;;14.50;99.90;;;;;;5048113;28;20726;-43
2021/10/27 00:32:30;;;;;;;14.88;11.60;;;14.50;99.90;;;;;;5055225;28;20021;-43
2021/10/27 00:34:55;;;;;;;17.30;11.80;;;14.50;99.90;;;;;;5050098;28;20029;-43
2021/10/27 00:37:21;;;;;;;14.80;11.00;;;14.50;99.90;;;;;;5053260;28;20033;-43
2021/10/27 00:39:53;;;;;;;12.23;9.95;;;14.50;99.90;;;;;;5052080;28;20071;-43
2021/10/27 00:42:19;;;;;;;13.10;10.27;;;14.60;99.90;;;;;;5051588;28;20135;-43
2021/10/27 00:44:45;;;;;;;12.80;10.85;;;14.60;99.90;;;;;;5054221;28;20745;-43
2021/10/27 00:47:13;;;;;;;13.95;10.70;;;14.60;99.90;;;;;;5048350;28;20025;-41
2021/10/27 00:49:41;;;;;;;12.48;10.80;;;14.60;99.90;;;;;;5051013;28;20499;-43
2021/10/27 00:52:11;;;;;;;13.10;9.90;;;14.60;99.90;;;;;;5047599;28;20027;-41
2021/10/27 00:54:38;;;;;;;17.70;12.88;;;14.60;99.90;;;;;;5057071;28;20119;-43
2021/10/27 00:57:04;;;;;;;13.70;11.40;;;14.60;99.90;;;;;;5048189;28;20040;-42
2021/10/27 00:59:30;;;;;;;12.90;10.88;;;14.60;99.90;;;;;;5057768;28;20025;-42
2021/10/27 01:01:56;;;;;;;10.13;8.38;;;14.60;99.90;;;;;;5045817;28;20439;-43
2021/10/27 01:04:23;;;;;;;12.32;10.43;;;14.60;99.90;;;;;;5053270;28;20488;-45
2021/10/27 01:06:49;;;;;;;13.55;10.70;;;14.60;99.90;;;;;;5066333;28;20033;-43
2021/10/27 01:09:15;;;;;;;15.82;11.63;;;14.60;99.90;;;;;;5053579;28;20033;-42
2021/10/27 01:11:42;;;;;;;12.18;10.13;;;14.60;99.90;;;;;;5066124;28;20296;-43
2021/10/27 01:14:09;;;;;;;17.83;12.85;;;14.60;99.90;;;;;;5055287;28;20492;-42
2021/10/27 01:16:35;;;;;;;14.85;12.10;;;14.60;99.90;;;;;;5063984;28;20468;-41
2021/10/27 01:19:00;;;;;;;11.95;9.52;;;14.60;99.90;;;;;;5057043;28;20036;-43
2021/10/27 01:21:29;;;;;;;11.40;9.80;;;14.60;99.90;;;;;;5062051;28;20116;-43
2021/10/27 01:23:56;;;;;;;11.98;10.48;;;14.60;99.90;;;;;;5059299;28;20052;-42
2021/10/27 01:26:21;;;;;;;13.50;10.05;;;14.60;99.90;;;;;;5060028;28;20514;-42
2021/10/27 01:28:47;;;;;;;10.75;9.38;;;14.60;99.90;;;;;;5061324;28;20028;-43
2021/10/27 01:31:14;;;;;;;11.10;8.52;;;14.60;99.90;;;;;;5057554;28;20120;-41
2021/10/27 01:33:42;;;;;;;10.55;9.43;;;14.60;99.90;;;;;;5064046;28;20024;-43
2021/10/27 01:36:08;;;;;;;9.75;8.73;;;14.50;99.90;;;;;;5055003;28;20025;-43
2021/10/27 01:38:38;;;;;;;13.23;10.93;;;14.60;99.90;;;;;;5064281;28;20025;-43
2021/10/27 01:41:04;;;;;;;11.15;9.25;;;14.60;99.90;;;;;;5054770;28;20024;-43
2021/10/27 01:43:29;;;;;;;15.77;11.15;;;14.60;99.90;;;;;;5064555;28;20605;-43
2021/10/27 01:45:55;;;;;;;16.42;11.20;;;14.60;99.90;;;;;;5054027;28;20039;-42
2021/10/27 01:48:21;;;;;;;13.48;10.32;;;14.60;99.90;;;;;;5065436;28;20551;-43
2021/10/27 01:50:47;;;;;;;14.35;10.73;;;14.50;99.90;;;;;;5052730;28;20706;-43
2021/10/27 01:53:14;;;;;;;10.75;9.50;;;14.50;99.90;;;;;;5066207;28;20097;-44
2021/10/27 01:55:41;;;;;;;10.57;9.35;;;14.50;99.90;;;;;;5052916;28;20049;-42
2021/10/27 01:58:06;;;;;;;13.25;9.95;;;14.50;99.90;;;;;;5065522;28;20028;-43
2021/10/27 02:00:33;;;;;;;12.60;9.50;;;14.50;99.90;;;;;;5055727;28;20062;-42
2021/10/27 02:02:58;;;;;;;12.32;9.55;;;14.50;99.90;;;;;;5062522;28;20444;-43
2021/10/27 02:05:24;;;;;;;10.73;9.02;;;14.50;99.90;;;;;;5057743;28;20511;-44
2021/10/27 02:07:49;;;;;;;12.73;9.40;;;14.50;99.90;;;;;;5060463;28;20486;-42
2021/10/27 02:10:15;;;;;;;13.45;9.63;;;14.50;99.90;;;;;;5060787;28;20050;-43
2021/10/27 02:12:42;;;;;;;13.30;9.35;;;14.50;99.90;;;;;;5056917;28;20045;-43
2021/10/27 02:15:10;;;;;;;10.85;8.98;;;14.50;99.90;;;;;;5063530;28;20044;-43
2021/10/27 02:17:35;;;;;;;11.32;8.20;;;14.50;99.90;;;;;;5055102;28;20055;-43
2021/10/27 02:20:02;;;;;;;11.57;7.93;;;14.50;99.90;;;;;;5063754;28;20404;-43
2021/10/27 02:22:27;;;;;;;9.20;7.82;;;14.50;99.90;;;;;;5054606;28;20107;-43
2021/10/27 02:24:53;;;;;;;9.52;7.30;;;14.60;99.90;;;;;;5063356;28;20135;-43
2021/10/27 02:27:21;;;;;;;7.97;6.45;;;14.60;99.90;;;;;;5054261;28;20039;-42
2021/10/27 02:29:46;;;;;;;8.93;7.57;;;14.60;99.90;;;;;;5065813;28;20021;-42
2021/10/27 02:32:12;;;;;;;8.07;6.72;;;14.70;99.90;;;;;;5052059;28;20595;-42
2021/10/27 02:34:37;;;;;;;11.52;8.10;;;14.60;99.90;;;;;;5066080;28;20044;-43
2021/10/27 02:37:03;;;;;;;10.90;7.93;;;14.60;99.90;;;;;;5056497;28;20065;-42
2021/10/27 02:39:29;;;;;;;10.90;7.43;;;14.70;99.90;;;;;;5068658;28;20043;-43
2021/10/27 02:41:55;;;;;;;8.05;6.70;;;14.70;99.90;;;;;;5058595;28;20572;-44
2021/10/27 02:44:21;;;;;;;6.88;5.70;;;14.70;99.90;;;;;;5066992;28;20153;-43
2021/10/27 02:46:47;;;;;;;9.77;6.93;;;14.70;99.90;;;;;;5060674;28;20017;-43
2021/10/27 02:49:13;;;;;;;10.32;6.95;;;14.70;99.90;;;;;;5053546;28;20524;-43
2021/10/27 02:51:38;;;;;;;13.48;6.60;;;14.70;99.90;;;;;;5053705;28;20032;-43
2021/10/27 02:54:04;;;;;;;8.60;6.40;;;14.70;99.90;;;;;;5055856;28;20037;-43
2021/10/27 02:56:29;;;;;;;7.22;5.55;;;14.70;99.90;;;;;;5050829;28;20033;-42
2021/10/27 02:58:55;;;;;;;10.63;6.40;;;14.70;99.90;;;;;;5058756;28;20089;-43
2021/10/27 03:01:20;;;;;;;8.40;5.55;;;14.70;99.90;;;;;;5049814;28;20052;-43
2021/10/27 03:03:46;;;;;;;7.57;5.32;;;14.70;99.90;;;;;;5059612;28;20028;-43
2021/10/27 03:06:15;;;;;;;7.63;5.97;;;14.70;99.90;;;;;;5049215;28;20028;-43
2021/10/27 03:08:40;;;;;;;9.85;5.22;;;14.70;99.90;;;;;;5059383;28;20055;-43
2021/10/27 03:11:06;;;;;;;7.55;5.35;;;14.80;99.90;;;;;;5048575;28;20021;-43
2021/10/27 03:13:32;;;;;;;6.35;5.10;;;14.80;99.90;;;;;;5060756;28;20869;-42
2021/10/27 03:15:57;;;;;;;6.53;4.95;;;14.80;99.90;;;;;;5047911;28;20036;-43
2021/10/27 03:18:23;;;;;;;8.93;4.63;;;14.80;99.90;;;;;;5060380;28;20025;-42
2021/10/27 03:20:48;;;;;;;7.82;4.90;;;14.80;99.90;;;;;;5048744;28;20033;-43
2021/10/27 03:23:14;;;;;;;7.90;4.50;;;14.80;99.90;;;;;;5057450;28;20040;-43
2021/10/27 03:25:40;;;;;;;7.70;4.38;;;14.80;99.90;;;;;;5051030;28;20025;-43
2021/10/27 03:28:05;;;;;;;8.57;4.82;;;14.80;99.90;;;;;;5054191;28;20037;-42
2021/10/27 03:30:31;;;;;;;7.97;4.75;;;14.80;99.90;;;;;;5053903;28;20140;-43
2021/10/27 03:32:57;;;;;;;7.25;3.92;;;14.70;99.90;;;;;;5052015;28;20024;-45
2021/10/27 03:35:23;;;;;;;5.50;3.88;;;14.70;99.90;;;;;;5056054;28;20234;-42
2021/10/27 03:37:49;;;;;;;6.03;3.58;;;14.70;99.90;;;;;;5049878;28;20575;-44
2021/10/27 03:40:15;;;;;;;7.88;3.80;;;14.70;99.90;;;;;;5058851;28;20025;-42
2021/10/27 03:42:41;;;;;;;7.53;3.80;;;14.70;99.90;;;;;;5048221;28;20116;-41
2021/10/27 03:45:06;;;;;;;6.03;3.75;;;14.70;99.90;;;;;;5059272;28;20146;-42
2021/10/27 03:47:32;;;;;;;6.40;3.80;;;14.70;99.90;;;;;;5046859;28;20416;-42
2021/10/27 03:49:58;;;;;;;5.50;3.50;;;14.70;99.90;;;;;;5048695;28;20394;-43
2021/10/27 03:52:24;;;;;;;4.38;3.30;;;14.70;99.90;;;;;;5050400;28;20029;-42
2021/10/27 03:54:50;;;;;;;6.55;3.53;;;14.70;99.90;;;;;;5054752;28;20044;-42
2021/10/27 03:57:15;;;;;;;5.43;3.40;;;14.70;99.90;;;;;;5067042;28;20035;-43
2021/10/27 03:59:41;;;;;;;5.65;3.17;;;14.70;99.90;;;;;;5055805;28;20036;-43
2021/10/27 04:02:07;;;;;;;6.20;3.53;;;14.70;99.90;;;;;;5066595;28;20032;-42
2021/10/27 04:04:32;;;;;;;7.68;3.78;;;14.80;99.90;;;;;;5058012;28;20028;-42
2021/10/27 04:06:58;;;;;;;5.85;3.33;;;14.80;99.90;;;;;;5063961;28;20075;-43
2021/10/27 04:09:24;;;;;;;6.72;3.33;;;14.70;99.90;;;;;;5061012;28;20025;-43
2021/10/27 04:11:49;;;;;;;8.20;3.55;;;14.70;99.90;;;;;;5060379;28;20793;-43
2021/10/27 04:14:15;;;;;;;5.78;3.60;;;14.80;99.90;;;;;;5063370;28;20032;-42
2021/10/27 04:16:40;;;;;;;6.38;3.20;;;14.70;99.90;;;;;;5058273;28;20021;-43
2021/10/27 04:19:06;;;;;;;5.38;3.40;;;14.70;99.90;;;;;;5065073;28;20040;-43
2021/10/27 04:21:32;;;;;;;7.05;3.33;;;14.80;99.90;;;;;;5055956;28;20037;-42
2021/10/27 04:23:57;;;;;;;6.85;3.17;;;14.80;99.90;;;;;;5065654;28;20109;-42
2021/10/27 04:26:23;;;;;;;5.07;2.97;;;14.70;99.90;;;;;;5055059;28;20016;-42
2021/10/27 04:28:52;;;;;;;5.82;3.50;;;14.70;99.90;;;;;;5067016;28;20495;-43
2021/10/27 04:31:19;;;;;;;5.00;3.15;;;14.80;99.90;;;;;;5054223;28;20486;-42
2021/10/27 04:33:45;;;;;;;7.78;3.53;;;14.70;99.90;;;;;;5066712;28;20526;-43
2021/10/27 04:36:10;;;;;;;7.18;3.10;;;14.70;99.90;;;;;;5054104;28;20017;-43
2021/10/27 04:38:36;;;;;;;5.43;2.67;;;14.80;99.90;;;;;;5066497;28;20475;-43
2021/10/27 04:41:02;;;;;;;5.13;2.88;;;14.80;99.90;;;;;;5055115;28;20405;-43
2021/10/27 04:43:27;;;;;;;6.28;3.60;;;14.80;99.90;;;;;;5065488;28;20129;-42
2021/10/27 04:45:53;;;;;;;7.97;2.78;;;14.70;99.90;;;;;;5057398;28;20491;-42
2021/10/27 04:48:18;;;;;;;4.05;2.60;;;14.80;99.90;;;;;;5062188;28;20036;-42
2021/10/27 04:50:45;;;;;;;4.80;3.10;;;14.70;99.90;;;;;;5052402;28;20015;-43
2021/10/27 04:53:16;;;;;;;5.55;3.30;;;14.70;99.90;;;;;;5052597;28;20032;-42
2021/10/27 04:55:43;;;;;;;4.15;3.00;;;14.80;99.90;;;;;;5050054;28;20099;-42
2021/10/27 04:58:08;;;;;;;5.22;3.03;;;14.80;99.90;;;;;;5054469;28;20025;-43
2021/10/27 05:00:34;;;;;;;4.75;3.30;;;14.70;99.90;;;;;;5047372;28;20479;-43
2021/10/27 05:02:59;;;;;;;7.35;3.33;;;14.80;99.90;;;;;;5056799;28;20035;-44
2021/10/27 05:05:26;;;;;;;9.38;2.90;;;14.80;99.90;;;;;;5047702;28;20044;-42
2021/10/27 05:07:53;;;;;;;8.02;3.20;;;14.80;99.90;;;;;;5057007;28;20057;-42
2021/10/27 05:10:21;;;;;;;5.90;3.00;;;14.80;99.90;;;;;;5046353;28;20028;-42
2021/10/27 05:12:47;;;;;;;6.80;2.88;;;14.80;99.90;;;;;;5057897;28;20040;-43
2021/10/27 05:15:12;;;;;;;6.38;2.88;;;14.80;99.90;;;;;;5046265;28;20021;-42
2021/10/27 05:17:38;;;;;;;4.97;2.80;;;14.80;99.90;;;;;;5058759;28;20442;-43
2021/10/27 05:20:04;;;;;;;5.50;2.90;;;14.80;99.90;;;;;;5046039;28;20473;-44
2021/10/27 05:22:29;;;;;;;6.45;2.72;;;14.80;99.90;;;;;;5056996;28;20037;-44
2021/10/27 05:24:55;;;;;;;4.72;2.60;;;14.80;99.90;;;;;;5046707;28;20036;-43
2021/10/27 05:27:20;;;;;;;5.18;3.22;;;14.80;99.90;;;;;;5055273;28;20069;-42
2021/10/27 05:29:49;;;;;;;7.75;2.70;;;14.70;99.90;;;;;;5049029;28;20048;-42
2021/10/27 05:32:14;;;;;;;6.70;2.67;;;14.70;99.90;;;;;;5052832;28;20060;-43
2021/10/27 05:34:43;;;;;;;4.85;2.80;;;14.80;99.90;;;;;;5050592;28;20491;-44
2021/10/27 05:37:09;;;;;;;5.90;2.83;;;14.80;99.90;;;;;;5050766;28;20056;-43
2021/10/27 05:39:35;;;;;;;6.72;2.75;;;14.70;99.90;;;;;;5053643;28;20140;-43
2021/10/27 05:42:02;;;;;;;7.97;3.28;;;14.80;99.90;;;;;;5047593;28;20451;-42
2021/10/27 05:44:27;;;;;;;5.43;2.90;;;14.80;99.90;;;;;;5055964;28;20045;-43
2021/10/27 05:46:53;;;;;;;5.68;3.20;;;14.80;99.90;;;;;;5047319;28;20039;-43
2021/10/27 05:55:03;;;;;;;10.00;3.20;;;14.70;99.90;;;;;;5047529;28;20505;-43
2021/10/27 05:57:27;;;;;;;3.47;2.35;;;14.70;99.90;;;;;;5046429;28;20037;-42
2021/10/27 05:59:52;;;;;;;7.03;3.35;;;14.70;99.90;;;;;;5037124;28;20541;-43
2021/10/27 06:02:18;;;;;;;3.47;2.47;;;14.80;99.90;;;;;;5044424;28;20048;-43
2021/10/27 06:04:44;;;;;;;5.53;2.35;;;14.70;99.90;;;;;;5054530;28;20017;-44
2021/10/27 06:07:10;;;;;;;8.15;2.65;;;14.70;99.90;;;;;;5044826;28;20601;-43
2021/10/27 06:09:37;;;;;;;7.00;3.50;;;14.70;99.90;;;;;;5058222;28;20044;-42
2021/10/27 06:12:05;;;;;;;5.30;3.38;;;14.70;99.90;;;;;;5048597;28;20620;-43
2021/10/27 06:14:31;;;;;;;6.13;3.28;;;14.70;99.90;;;;;;5060767;28;20123;-43
2021/10/27 06:16:56;;;;;;;7.25;2.72;;;14.70;99.90;;;;;;5048291;28;20480;-43
2021/10/27 06:19:22;;;;;;;3.38;2.63;;;14.70;99.90;;;;;;5060126;28;20025;-43
2021/10/27 06:21:49;;;;;;;4.70;2.47;;;14.70;99.90;;;;;;5048458;28;20516;-43
2021/10/27 06:24:14;;;;;;;6.03;3.22;;;14.70;99.90;;;;;;5052591;28;20159;-43
2021/10/27 06:26:43;;;;;;;6.55;3.20;;;14.70;99.90;;;;;;5056956;28;20029;-43
2021/10/27 06:29:13;;;;;;;6.00;2.92;;;14.70;99.90;;;;;;5053432;28;20029;-43
2021/10/27 06:31:49;;;;;;;6.85;3.20;;;14.70;99.90;;;;;;5063436;28;20453;-43
2021/10/27 06:47:44;;;;;;;4.55;3.30;;;14.60;99.90;;;;;;5029690;28;20118;-42
2021/10/27 06:50:09;;;;;;;9.73;3.30;;;14.70;99.90;;;;;;5059016;28;20052;-43
2021/10/27 06:52:35;;;;;;;4.60;3.20;;;14.70;99.90;;;;;;5051029;28;20392;-43
2021/10/27 06:55:04;;;;;;;5.47;3.75;;;14.70;99.90;;;;;;5055320;28;20426;-43
2021/10/27 06:57:30;;;;;;;7.22;3.85;;;14.70;99.90;;;;;;5053482;28;20021;-43
2021/10/27 07:00:02;;;;;;;7.90;4.15;;;14.70;99.90;;;;;;5053069;28;20032;-43
2021/10/27 07:02:46;;;;;;;8.50;3.78;;;14.70;99.90;;;;;;5054940;28;20724;-43
2021/10/27 07:16:06;;;;;;;6.63;3.78;;;14.70;99.90;;;;;;5058976;28;20117;-43
2021/10/27 07:18:32;;;;;;;6.53;4.03;;;14.60;99.90;;;;;;5050533;28;20029;-44
2021/10/27 07:20:57;;;;;;;6.90;3.80;;;14.70;99.90;;;;;;5055080;28;20031;-43
2021/10/27 07:23:23;;;;;;;9.65;4.57;;;14.70;99.90;;;;;;5052787;28;20083;-43
2021/10/27 07:25:56;;;;;;;9.75;3.90;;;14.70;99.90;;;;;;5052869;28;20126;-43
2021/10/27 07:28:22;;;;;;;5.10;3.80;;;14.70;99.90;;;;;;5053786;28;20175;-44
2021/10/27 07:30:48;;;;;;;7.07;4.53;;;14.70;99.90;;;;;;5051723;28;20013;-44
2021/10/27 07:33:14;;;;;;;9.07;4.32;;;14.80;99.90;;;;;;5057116;28;20484;-43
2021/10/27 07:35:46;;;;;;;8.25;4.93;;;14.70;99.90;;;;;;5048772;28;20048;-43
2021/10/27 07:40:56;;;;;;;9.18;4.55;;;14.80;99.90;;;;;;5066130;28;20047;-43
2021/10/27 07:43:26;;;;;;;8.05;4.47;;;14.80;99.90;;;;;;5056139;28;20492;-43
2021/10/27 07:45:53;;;;;;;7.15;4.90;;;14.80;99.90;;;;;;5064083;28;20104;-43
2021/10/27 07:48:19;;;;;;;11.13;5.38;;;14.80;99.90;;;;;;5054421;28;20530;-43
2021/10/27 07:50:45;;;;;;;9.90;4.88;;;14.80;99.90;;;;;;5030356;28;20025;-43
2021/10/27 07:53:12;;;;;;;9.18;4.78;;;14.80;99.90;;;;;;5059290;28;20376;-43
2021/10/27 07:55:50;;;;;;;7.40;4.55;;;14.80;99.90;;;;;;5046851;28;20095;-42
2021/10/27 07:58:21;;;;;;;7.50;4.45;;;14.80;99.90;;;;;;5054361;28;20046;-43
2021/10/27 08:00:50;;;;;;;8.45;5.40;;;14.80;99.90;;;;;;5068102;28;20020;-43
2021/10/27 08:03:15;;;;;;;10.80;5.90;;;14.90;99.90;;;;;;5053822;28;20037;-44
2021/10/27 08:05:44;;;;;;;6.55;4.45;;;14.90;99.90;;;;;;5067363;28;20027;-43
2021/10/27 08:08:15;;;;;;;10.02;5.28;;;14.80;99.90;;;;;;5053414;28;20037;-43
2021/10/27 08:10:41;;;;;;;8.82;5.43;;;14.80;99.90;;;;;;5066689;28;20035;-43
2021/10/27 08:13:09;;;;;;;7.25;4.70;;;14.90;99.90;;;;;;5056041;28;20899;-42
2021/10/27 08:15:35;;;;;;;6.82;5.07;;;14.90;99.90;;;;;;5066437;28;20016;-44
2021/10/27 08:18:01;;;;;;;8.85;4.95;;;15.00;99.90;;;;;;5055290;28;20031;-43
2021/10/27 08:20:27;;;;;;;7.72;5.05;;;15.10;99.90;;;;;;5063366;28;20078;-43
2021/10/27 08:23:02;;;;;;;8.02;4.93;;;15.10;99.90;;;;;;5060597;28;20040;-42
2021/10/27 08:25:35;;;;;;;8.50;5.40;;;15.20;99.90;;;;;;5059061;28;20031;-43
2021/10/27 08:28:07;;;;;;;8.43;5.20;;;15.20;99.90;;;;;;5052607;28;20032;-43
2021/10/27 08:30:38;;;;;;;6.82;4.75;;;15.30;99.90;;;;;;5051534;28;20025;-42
2021/10/27 08:33:06;;;;;;;9.30;5.80;;;15.30;99.90;;;;;;5051545;28;20024;-44
2021/10/27 08:35:34;;;;;;;9.60;5.20;;;15.40;99.90;;;;;;5041133;28;20071;-43
2021/10/27 08:38:01;;;;;;;8.10;5.13;;;15.40;99.90;;;;;;5041532;28;20029;-43
2021/10/27 08:40:27;;;;;;;6.80;5.35;;;15.30;99.90;;;;;;5052966;28;20368;-43
2021/10/27 08:42:55;;;;;;;9.40;5.70;;;15.20;99.90;;;;;;5047875;28;20039;-43
2021/10/27 08:45:21;;;;;;;7.75;5.63;;;15.20;99.90;;;;;;5057643;28;20039;-43
2021/10/27 08:47:50;;;;;;;6.65;5.85;;;15.10;99.90;;;;;;5047734;28;20544;-44
2021/10/27 08:50:17;;;;;;;6.07;5.47;;;15.10;99.90;;;;;;5058763;28;20021;-43
2021/10/27 08:52:43;;;;;;;10.43;6.80;;;15.20;99.90;;;;;;5047825;28;20025;-43
2021/10/27 08:55:12;;;;;;;6.88;5.57;;;15.10;99.90;;;;;;5053630;28;20068;-43
2021/10/27 08:57:39;;;;;;;10.55;6.40;;;15.10;99.90;;;;;;5064853;28;20527;-43
2021/10/27 09:00:31;;;;;;;8.30;6.38;;;15.10;99.90;;;;;;5053118;28;20028;-44
2021/10/27 09:05:32;;;;;;;9.18;6.28;;;15.20;99.90;;;;;;5053628;28;20707;-42
2021/10/27 09:44:49;;;;;;;9.07;6.30;;;16.00;99.90;;;;;;5048026;28;20037;-44
2021/10/27 10:04:23;;;;;;;7.70;5.95;;;16.20;99.90;;;;;;5068010;28;20170;-43
2021/10/27 10:06:57;;;;;;;9.40;6.47;;;16.30;99.90;;;;;;5059333;28;20033;-43
2021/10/27 10:09:25;;;;;;;8.75;6.10;;;16.40;99.90;;;;;;5068086;28;20035;-44
2021/10/27 10:11:51;;;;;;;9.50;5.85;;;16.40;99.90;;;;;;5060481;28;20427;-43
2021/10/27 10:14:18;;;;;;;10.55;5.78;;;16.40;99.90;;;;;;5066505;28;20074;-43
2021/10/27 10:16:57;;;;;;;8.80;6.20;;;16.40;99.90;;;;;;5061560;28;20009;-43
2021/10/27 10:19:28;;;;;;;6.88;5.55;;;16.40;99.90;;;;;;5065662;28;20108;-43
2021/10/27 10:21:55;;;;;;;9.30;6.22;;;16.50;99.90;;;;;;5063019;28;20045;-44
2021/10/27 10:24:28;;;;;;;8.43;5.30;;;16.50;99.90;;;;;;5063358;28;20551;-42
2021/10/27 10:27:04;;;;;;;6.28;4.72;;;16.50;99.90;;;;;;5064027;28;20082;-43
2021/10/27 10:29:36;;;;;;;8.50;6.93;;;16.50;99.90;;;;;;5063682;28;20071;-43
2021/10/27 10:32:25;;;;;;;9.25;5.80;;;16.60;99.90;;;;;;5062672;28;20436;-43
2021/10/27 10:34:55;;;;;;;8.00;6.82;;;16.60;99.90;;;;;;5065083;28;20116;-42
2021/10/27 10:38:00;;;;;;;6.65;5.65;;;16.50;99.90;;;;;;5062663;28;20017;-44
2021/10/27 10:40:40;;;;;;;7.95;5.40;;;16.50;99.90;;;;;;5068180;28;20028;-44
2021/10/27 10:43:17;;;;;;;8.30;6.55;;;16.50;99.90;;;;;;5058444;28;20083;-43
2021/10/27 10:55:31;;;;;;;7.10;5.82;;;16.50;99.90;;;;;;5068268;28;20020;-43
2021/10/27 11:23:02;;;;;;;7.82;4.85;;;17.20;99.90;;;;;;5048163;28;20083;-34
2021/10/27 11:25:45;;;;;;;4.75;3.60;;;17.20;99.90;;;;;;5059203;28;20037;-32
2021/10/27 11:39:44;;;;;;;5.80;5.00;;;17.10;99.90;;;;;;5064314;28;20142;-44
2021/10/27 11:45:04;;;;;;;5.18;4.28;;;17.10;99.90;;;;;;5059662;28;20041;-43
2021/10/27 11:47:33;;;;;;;6.22;4.55;;;17.10;99.90;;;;;;5064830;28;20066;-44
2021/10/27 11:49:58;;;;;;;6.07;4.40;;;17.10;99.90;;;;;;5060257;28;20586;-43
2021/10/27 11:52:52;;;;;;;6.05;4.05;;;17.00;99.90;;;;;;5063572;28;20064;-44
2021/10/27 11:55:19;;;;;;;5.05;4.43;;;17.00;99.90;;;;;;5055569;28;20051;-43
2021/10/27 11:57:46;;;;;;;4.68;3.92;;;17.00;99.90;;;;;;5064138;28;20384;-42
2021/10/27 12:03:09;;;;;;;8.65;4.75;;;17.00;99.90;;;;;;5064532;28;20040;-44
2021/10/27 12:05:48;;;;;;;4.97;4.45;;;17.00;99.90;;;;;;5059161;28;20027;-45
2021/10/27 12:11:00;;;;;;;7.35;4.30;;;17.00;99.90;;;;;;5058559;28;20040;-43
2021/10/27 12:19:00;;;;;;;8.05;4.97;;;17.20;99.90;;;;;;5027872;28;20028;-43
2021/10/27 12:21:28;;;;;;;7.40;4.95;;;17.20;99.90;;;;;;5053779;28;20491;-43
2021/10/27 12:23:55;;;;;;;7.05;5.28;;;17.20;99.90;;;;;;5047621;28;20068;-43
2021/10/27 12:26:23;;;;;;;5.90;4.55;;;17.30;99.90;;;;;;5056607;28;20056;-43
2021/10/27 12:29:08;;;;;;;4.55;4.13;;;17.30;99.90;;;;;;5050063;28;20041;-42
2021/10/27 12:31:33;;;;;;;6.70;5.22;;;17.40;99.90;;;;;;5055916;28;20021;-43
2021/10/27 12:33:59;;;;;;;5.95;4.93;;;17.50;99.90;;;;;;5050015;28;20102;-43
2021/10/27 12:36:34;;;;;;;6.25;5.50;;;17.50;99.90;;;;;;5053628;28;20093;-44
2021/10/27 12:42:07;;;;;;;4.90;4.38;;;17.50;99.90;;;;;;5055393;28;20135;-44
2021/10/27 12:44:43;;;;;;;6.10;4.65;;;17.50;99.90;;;;;;5047400;28;20542;-43
2021/10/27 12:47:12;;;;;;;6.05;4.82;;;17.60;99.90;;;;;;5057580;28;20029;-44
2021/10/27 12:49:40;;;;;;;4.93;4.18;;;17.50;99.90;;;;;;5055670;28;20028;-44
2021/10/27 12:52:37;;;;;;;6.60;4.43;;;17.50;99.90;;;;;;5058047;28;20477;-43
2021/10/27 12:55:19;;;;;;;5.20;3.75;;;17.60;99.90;;;;;;5045905;28;20055;-44
2021/10/27 12:58:10;;;;;;;;;;;17.60;99.90;;;;;;5058072;28;20024;-43
2021/10/27 13:01:31;;;;;;;6.20;5.05;;;17.50;99.90;;;;;;5021618;28;19909;-43
2021/10/27 13:13:58;;;;;;;7.90;5.00;;;17.40;99.90;;;;;;5057682;28;20033;-44
2021/10/27 13:21:46;;;;;;;8.73;4.82;;;17.40;99.90;;;;;;5045832;28;20136;-43
2021/10/27 13:29:46;;;;;;;6.00;5.03;;;17.40;99.90;;;;;;5055077;28;20040;-42
2021/10/27 13:32:21;;;;;;;6.15;5.55;;;17.40;99.90;;;;;;5047756;28;20029;-43
2021/10/27 13:34:47;;;;;;;7.45;4.70;;;17.40;99.90;;;;;;5054211;28;21083;-43
2021/10/27 13:37:13;;;;;;;5.80;4.50;;;17.40;99.90;;;;;;5046471;28;20057;-42
2021/10/27 13:39:40;;;;;;;5.43;4.70;;;17.40;99.90;;;;;;5057794;28;20052;-43
2021/10/27 13:42:20;;;;;;;5.32;4.28;;;17.40;99.90;;;;;;5045862;28;20116;-43
2021/10/27 13:45:04;;;;;;;7.63;4.93;;;17.40;99.90;;;;;;5058116;28;20024;-42
2021/10/27 14:06:30;;;;;;;9.60;5.25;;;17.40;99.90;;;;;;5048489;28;20529;-43
2021/10/27 14:09:05;;;;;;;7.68;4.80;;;17.40;99.90;;;;;;5062909;28;20517;-44
2021/10/27 14:11:35;;;;;;;7.72;5.32;;;17.30;99.90;;;;;;5056630;28;20074;-43
2021/10/27 14:41:23;;;;;;;8.90;6.05;;;16.80;99.90;;;;;;5058976;28;20040;-42
2021/10/27 15:22:15;;;;;;;5.28;4.32;;;16.20;99.90;;;;;;5060640;28;20420;-43
2021/10/27 15:25:06;;;;;;;5.07;4.20;;;16.20;99.90;;;;;;5065255;28;20391;-42
2021/10/27 15:40:56;;;;;;;6.70;4.20;;;16.00;99.90;;;;;;5027497;28;20044;-42
2021/10/27 15:43:34;;;;;;;7.07;4.50;;;16.00;99.90;;;;;;5057744;28;20036;-44
2021/10/27 15:51:29;;;;;;;7.15;4.45;;;15.90;99.90;;;;;;5028389;28;20110;-42
2021/10/27 15:53:55;;;;;;;5.72;4.40;;;15.80;99.90;;;;;;5058192;28;20020;-43
2021/10/27 15:56:22;;;;;;;7.07;4.50;;;15.80;99.90;;;;;;5048408;28;20056;-44
2021/10/27 15:58:48;;;;;;;7.93;5.20;;;15.70;99.90;;;;;;5059788;28;20441;-44
2021/10/27 16:01:14;;;;;;;6.97;5.07;;;15.70;99.90;;;;;;5047533;28;20499;-43
2021/10/27 16:03:40;;;;;;;6.45;4.78;;;15.70;99.90;;;;;;5057102;28;20072;-44
2021/10/27 16:06:06;;;;;;;5.47;4.60;;;15.70;99.90;;;;;;5050443;28;20025;-43
2021/10/27 16:08:35;;;;;;;6.95;4.25;;;15.60;99.90;;;;;;5053889;28;20554;-44
2021/10/27 16:11:02;;;;;;;7.55;4.32;;;15.60;99.90;;;;;;5052372;28;20025;-42
2021/10/27 16:13:27;;;;;;;9.25;4.43;;;15.50;99.90;;;;;;5052648;28;20028;-43
2021/10/27 16:15:59;;;;;;;7.75;4.20;;;15.50;99.90;;;;;;5053842;28;20025;-43
2021/10/27 16:18:28;;;;;;;9.18;4.18;;;15.40;99.90;;;;;;5050935;28;20032;-44
2021/10/27 16:20:54;;;;;;;6.22;3.92;;;15.30;99.90;;;;;;5055832;28;20039;-44
2021/10/27 16:23:20;;;;;;;5.75;3.75;;;15.30;99.90;;;;;;5048012;28;20055;-43
2021/10/27 16:25:47;;;;;;;6.70;3.58;;;15.20;99.90;;;;;;5044994;28;20031;-43
2021/10/27 16:28:16;;;;;;;6.28;3.78;;;15.20;99.90;;;;;;5066025;28;20631;-44
2021/10/27 16:30:42;;;;;;;5.80;3.65;;;15.10;99.90;;;;;;5055070;28;20483;-43
2021/10/27 16:33:08;;;;;;;5.50;3.55;;;15.10;99.90;;;;;;5066518;28;20024;-43
2021/10/27 16:35:34;;;;;;;9.18;4.55;;;15.00;99.90;;;;;;5054874;28;20027;-43
2021/10/27 16:38:02;;;;;;;5.43;3.97;;;15.00;99.90;;;;;;5066360;28;20058;-43
2021/10/27 16:40:28;;;;;;;6.40;4.07;;;14.90;99.90;;;;;;5056288;28;20028;-42
2021/10/27 16:42:53;;;;;;;8.85;4.20;;;14.90;99.90;;;;;;5066595;28;20040;-43
2021/10/27 16:45:19;;;;;;;6.25;4.15;;;14.90;99.90;;;;;;5054947;28;20431;-43
2021/10/27 16:47:45;;;;;;;6.55;4.25;;;14.90;99.90;;;;;;5065780;28;20070;-42
2021/10/27 16:50:13;;;;;;;4.75;3.13;;;14.90;99.90;;;;;;5052766;28;20496;-43
2021/10/27 16:52:48;;;;;;;7.03;3.53;;;14.80;99.90;;;;;;5046902;28;20033;-42
2021/10/27 16:55:18;;;;;;;5.32;3.63;;;14.80;99.90;;;;;;5055489;28;20550;-43
2021/10/27 16:57:50;;;;;;;5.50;3.53;;;14.80;99.90;;;;;;5062516;28;20024;-44
2021/10/27 17:00:18;;;;;;;6.53;3.50;;;14.80;99.90;;;;;;5059540;28;20032;-43
2021/10/27 17:02:44;;;;;;;5.65;3.60;;;14.70;99.90;;;;;;5061014;28;20438;-44
2021/10/27 17:05:10;;;;;;;5.07;3.50;;;14.70;99.90;;;;;;5060631;28;20025;-43
2021/10/27 17:07:37;;;;;;;4.28;2.60;;;14.60;99.90;;;;;;5058964;28;20551;-43
2021/10/27 17:10:04;;;;;;;5.25;3.60;;;14.60;99.90;;;;;;5063543;28;20021;-43
2021/10/27 17:12:30;;;;;;;5.63;3.15;;;14.60;99.90;;;;;;5056145;28;20016;-43
2021/10/27 17:14:56;;;;;;;5.18;3.58;;;14.60;99.90;;;;;;5064684;28;20036;-43
2021/10/27 17:17:22;;;;;;;5.53;4.20;;;14.50;99.90;;;;;;5055256;28;20021;-44
2021/10/27 17:19:47;;;;;;;3.80;2.83;;;14.50;99.90;;;;;;5064084;28;20400;-43
2021/10/27 17:22:14;;;;;;;6.60;3.53;;;14.50;99.90;;;;;;5054147;28;20033;-43
2021/10/27 17:24:40;;;;;;;6.15;3.83;;;14.50;99.90;;;;;;5046409;28;20029;-44